Terminal Aerodrome Forecast
Issued by NWS

Home | Current Version | Previous Version | Text Only | Print | Product List | Glossary On
Versions: 1 2 3 4 5 6 7 8 9 10 11 12 13 14 15 16
000
FTUS43 KMQT 040520
TAFIWD
TAF
KIWD 040520Z 0406/0506 28004KT P6SM VCSH BKN040
     FM041000 29003KT P6SM BKN025
     FM041600 31007KT P6SM BKN045
     FM041800 31007KT P6SM SCT080
     FM050000 00000KT P6SM FEW100
      AMD LTD TO CLD VIS AND WIND=

USA.gov is the U.S. government's official web portal to all federal, state and local government web resources and services.